Station Historical Data
Daily Summary for February 7, 2012 Units:  English    Metric   Both
« Previous Day
Next Day »
Daily Weekly Monthly Yearly Custom
  High: Low: Average:
Temperature: 56.4 °F 32.2 °F 45.1 °F
Dew Point: 38.7 °F 28.8 °F 33.7 °F
Humidity: 96% 35% 68%
Wind Speed: 9.0mph 0.0mph 2.4mph
Wind Gust: 12.0mph - -
Wind- - SE
Pressure: 30.27 in 30.17 in -
Precipitation: 0.00 in    
Historical Graphs
 
 
Tabular Data for February 7, 2012
Time Temperature Dew Point Pressure Wind Wind Speed Wind Gust Humidity Rainfall Rate (Hourly) Conditions
00:00 38.7 °F 35.7 °F 30.20 in Calm     89% 0.00 in
00:01 38.7 °F 35.7 °F 30.20 in Calm     89% 0.00 in
00:06 38.6 °F 35.9 °F 30.21 in Calm     90% 0.00 in
00:11 38.5 °F 35.8 °F 30.20 in Calm     90% 0.00 in
00:16 38.3 °F 35.6 °F 30.21 in Calm     90% 0.00 in
00:21 38.4 °F 35.7 °F 30.21 in Calm     90% 0.00 in
00:26 38.3 °F 35.6 °F 30.21 in Calm     90% 0.00 in
00:31 37.9 °F 35.2 °F 30.21 in Calm     90% 0.00 in
00:36 37.5 °F 35.1 °F 30.21 in Calm     91% 0.00 in
00:41 37.2 °F 34.8 °F 30.21 in Calm     91% 0.00 in
00:46 36.8 °F 34.7 °F 30.21 in Calm     92% 0.00 in
00:51 36.5 °F 34.4 °F 30.21 in Calm     92% 0.00 in
00:56 36.3 °F 34.5 °F 30.21 in Calm     93% 0.00 in
01:01 36.1 °F 34.3 °F 30.21 in Calm     93% 0.00 in
01:06 36.1 °F 34.5 °F 30.21 in Calm     94% 0.00 in
01:11 35.9 °F 34.3 °F 30.21 in Calm     94% 0.00 in
01:16 35.9 °F 34.3 °F 30.21 in Calm     94% 0.00 in
01:22 35.9 °F 34.3 °F 30.21 in Calm     94% 0.00 in
01:27 35.7 °F 34.2 °F 30.21 in Calm     94% 0.00 in
01:32 35.7 °F 34.4 °F 30.22 in Calm     95% 0.00 in
01:37 35.6 °F 34.3 °F 30.21 in Calm     95% 0.00 in
01:42 35.5 °F 34.2 °F 30.21 in Calm     95% 0.00 in
01:47 35.4 °F 34.1 °F 30.22 in Calm     95% 0.00 in
01:52 35.5 °F 34.2 °F 30.22 in Calm     95% 0.00 in
01:57 35.5 °F 34.2 °F 30.22 in Calm     95% 0.00 in
02:02 35.3 °F 34.0 °F 30.22 in Calm     95% 0.00 in
02:07 35.1 °F 33.8 °F 30.22 in Calm     95% 0.00 in
02:12 34.8 °F 33.5 °F 30.22 in Calm     95% 0.00 in
02:17 35.0 °F 34.0 °F 30.22 in Calm     96% 0.00 in
02:22 35.6 °F 34.6 °F 30.22 in North 1.0 mph 1.0 mph 96% 0.00 in
02:27 35.7 °F 34.7 °F 30.22 in NNW 1.0 mph 1.0 mph 96% 0.00 in
02:32 35.5 °F 34.5 °F 30.22 in NNW 1.0 mph 1.0 mph 96% 0.00 in
02:37 35.3 °F 34.3 °F 30.21 in North 2.0 mph 2.0 mph 96% 0.00 in
02:42 34.9 °F 33.6 °F 30.21 in North 1.0 mph 2.0 mph 95% 0.00 in
02:47 34.7 °F 33.4 °F 30.21 in North 1.0 mph 1.0 mph 95% 0.00 in
02:52 34.8 °F 33.8 °F 30.21 in Calm   1.0 mph 96% 0.00 in
02:57 35.2 °F 34.2 °F 30.21 in North 1.0 mph 2.0 mph 96% 0.00 in
03:02 35.6 °F 34.6 °F 30.21 in Calm   1.0 mph 96% 0.00 in
03:08 35.8 °F 34.8 °F 30.21 in North 1.0 mph 1.0 mph 96% 0.00 in
03:13 36.3 °F 35.3 °F 30.21 in North 2.0 mph 2.0 mph 96% 0.00 in
03:18 36.6 °F 35.3 °F 30.21 in North 1.0 mph 1.0 mph 95% 0.00 in
03:23 36.6 °F 35.0 °F 30.21 in Calm   1.0 mph 94% 0.00 in
03:28 36.7 °F 35.1 °F 30.21 in NNE 1.0 mph 1.0 mph 94% 0.00 in
03:33 37.0 °F 35.2 °F 30.21 in NNE 1.0 mph 1.0 mph 93% 0.00 in
03:38 37.1 °F 35.3 °F 30.21 in NNE 1.0 mph 1.0 mph 93% 0.00 in
03:43 37.0 °F 35.2 °F 30.21 in North 1.0 mph 2.0 mph 93% 0.00 in
03:48 36.9 °F 35.1 °F 30.21 in North 1.0 mph 1.0 mph 93% 0.00 in
03:53 36.7 °F 34.9 °F 30.21 in North 1.0 mph 1.0 mph 93% 0.00 in
03:58 36.6 °F 34.8 °F 30.21 in North 1.0 mph 1.0 mph 93% 0.00 in
04:03 36.7 °F 34.9 °F 30.21 in North 1.0 mph 1.0 mph 93% 0.00 in
04:08 36.9 °F 35.1 °F 30.22 in NNE 1.0 mph 1.0 mph 93% 0.00 in
04:13 37.0 °F 35.2 °F 30.21 in NNE 1.0 mph 1.0 mph 93% 0.00 in
04:18 37.0 °F 34.9 °F 30.21 in North 1.0 mph 3.0 mph 92% 0.00 in
04:23 36.9 °F 34.8 °F 30.21 in NNE 2.0 mph 3.0 mph 92% 0.00 in
04:28 36.7 °F 34.6 °F 30.21 in North 2.0 mph 2.0 mph 92% 0.00 in
04:33 36.5 °F 34.4 °F 30.21 in NNE 1.0 mph 2.0 mph 92% 0.00 in
04:38 36.3 °F 34.2 °F 30.21 in North 1.0 mph 1.0 mph 92% 0.00 in
04:43 36.3 °F 34.5 °F 30.21 in North 2.0 mph 2.0 mph 93% 0.00 in
04:48 36.3 °F 34.5 °F 30.20 in NNW 3.0 mph 3.0 mph 93% 0.00 in
04:53 36.3 °F 34.5 °F 30.20 in North 2.0 mph 3.0 mph 93% 0.00 in
04:58 36.4 °F 34.6 °F 30.20 in North 1.0 mph 2.0 mph 93% 0.00 in
05:03 36.3 °F 34.5 °F 30.21 in Calm   1.0 mph 93% 0.00 in
05:08 36.1 °F 34.3 °F 30.21 in Calm     93% 0.00 in
05:13 36.2 °F 34.6 °F 30.21 in North 1.0 mph 2.0 mph 94% 0.00 in
05:18 36.3 °F 34.7 °F 30.21 in NNE 1.0 mph 1.0 mph 94% 0.00 in
05:23 36.3 °F 34.5 °F 30.21 in North 2.0 mph 2.0 mph 93% 0.00 in
05:28 36.0 °F 34.2 °F 30.21 in NNE 2.0 mph 2.0 mph 93% 0.00 in
05:33 36.0 °F 34.2 °F 30.21 in NNE 2.0 mph 3.0 mph 93% 0.00 in
05:38 36.0 °F 34.2 °F 30.21 in NNE 3.0 mph 3.0 mph 93% 0.00 in
05:43 36.1 °F 34.3 °F 30.21 in NNE 2.0 mph 2.0 mph 93% 0.00 in
05:48 36.0 °F 34.2 °F 30.21 in NNE 1.0 mph 1.0 mph 93% 0.00 in
05:53 35.9 °F 34.1 °F 30.22 in North 2.0 mph 2.0 mph 93% 0.00 in
05:58 35.6 °F 33.8 °F 30.21 in North 2.0 mph 3.0 mph 93% 0.00 in
06:03 35.2 °F 33.4 °F 30.21 in NNE 2.0 mph 3.0 mph 93% 0.00 in
06:08 35.0 °F 33.2 °F 30.22 in NNE 2.0 mph 3.0 mph 93% 0.00 in
06:13 34.8 °F 33.0 °F 30.22 in North 1.0 mph 2.0 mph 93% 0.00 in
06:19 34.7 °F 33.2 °F 30.22 in North 1.0 mph 2.0 mph 94% 0.00 in
06:24 34.7 °F 33.2 °F 30.22 in North 1.0 mph 2.0 mph 94% 0.00 in
06:29 34.7 °F 33.2 °F 30.22 in NNE 1.0 mph 2.0 mph 94% 0.00 in
06:34 34.8 °F 33.2 °F 30.22 in North 1.0 mph 2.0 mph 94% 0.00 in
06:39 34.8 °F 33.2 °F 30.23 in NNE 1.0 mph 1.0 mph 94% 0.00 in
06:44 34.8 °F 33.2 °F 30.23 in NNE 1.0 mph 1.0 mph 94% 0.00 in
06:49 34.8 °F 33.2 °F 30.23 in Calm   1.0 mph 94% 0.00 in
06:54 34.8 °F 33.2 °F 30.23 in Calm     94% 0.00 in
06:59 34.6 °F 33.0 °F 30.23 in Calm     94% 0.00 in
07:04 34.1 °F 32.3 °F 30.24 in Calm     93% 0.00 in
07:09 33.9 °F 32.4 °F 30.24 in Calm     94% 0.00 in
07:14 33.3 °F 31.8 °F 30.24 in Calm   1.0 mph 94% 0.00 in
07:19 33.1 °F 31.6 °F 30.24 in Calm     94% 0.00 in
07:24 32.8 °F 31.3 °F 30.24 in Calm     94% 0.00 in
07:29 32.5 °F 31.2 °F 30.24 in Calm     95% 0.00 in
07:34 32.4 °F 31.1 °F 30.24 in Calm     95% 0.00 in
07:39 32.6 °F 31.6 °F 30.24 in North 1.0 mph 1.0 mph 96% 0.00 in
07:44 32.5 °F 31.2 °F 30.24 in North 1.0 mph 1.0 mph 95% 0.00 in
07:49 32.3 °F 31.3 °F 30.24 in Calm     96% 0.00 in
07:54 32.2 °F 30.9 °F 30.24 in Calm     95% 0.00 in
07:59 32.3 °F 31.3 °F 30.25 in Calm     96% 0.00 in
08:04 33.2 °F 32.2 °F 30.25 in Calm     96% 0.00 in
08:09 33.9 °F 32.9 °F 30.25 in Calm     96% 0.00 in
08:14 34.2 °F 33.2 °F 30.25 in Calm     96% 0.00 in
08:19 34.5 °F 33.5 °F 30.25 in North 1.0 mph 1.0 mph 96% 0.00 in
08:24 34.8 °F 33.8 °F 30.25 in North 1.0 mph 1.0 mph 96% 0.00 in
08:29 35.2 °F 34.2 °F 30.25 in North 1.0 mph 1.0 mph 96% 0.00 in
08:35 35.4 °F 34.1 °F 30.25 in North 1.0 mph 2.0 mph 95% 0.00 in
08:40 35.7 °F 34.2 °F 30.26 in Calm   1.0 mph 94% 0.00 in
08:45 36.1 °F 34.5 °F 30.26 in North 1.0 mph 1.0 mph 94% 0.00 in
08:50 36.6 °F 34.8 °F 30.26 in North 1.0 mph 2.0 mph 93% 0.00 in
08:55 37.1 °F 35.0 °F 30.26 in North 1.0 mph 2.0 mph 92% 0.00 in
09:00 37.6 °F 35.2 °F 30.26 in North 1.0 mph 2.0 mph 91% 0.00 in
09:05 38.2 °F 35.8 °F 30.26 in North 1.0 mph 1.0 mph 91% 0.00 in
09:10 38.8 °F 36.4 °F 30.26 in NNE 2.0 mph 3.0 mph 91% 0.00 in
09:15 39.4 °F 36.4 °F 30.26 in NE 3.0 mph 3.0 mph 89% 0.00 in
09:20 40.0 °F 36.2 °F 30.26 in NE 3.0 mph 5.0 mph 86% 0.00 in
09:25 40.7 °F 37.1 °F 30.26 in NNE 3.0 mph 4.0 mph 87% 0.00 in
09:30 41.2 °F 36.7 °F 30.26 in NE 3.0 mph 5.0 mph 84% 0.00 in
09:35 41.5 °F 37.0 °F 30.26 in NNE 3.0 mph 6.0 mph 84% 0.00 in
09:40 42.0 °F 37.5 °F 30.27 in North 1.0 mph 4.0 mph 84% 0.00 in
09:45 42.6 °F 37.5 °F 30.26 in NE 1.0 mph 4.0 mph 82% 0.00 in
09:50 42.9 °F 37.2 °F 30.26 in NE 3.0 mph 6.0 mph 80% 0.00 in
09:55 43.5 °F 38.1 °F 30.26 in NE 2.0 mph 6.0 mph 81% 0.00 in
10:00 44.1 °F 38.3 °F 30.27 in NE 1.0 mph 4.0 mph 80% 0.00 in
10:05 44.6 °F 38.2 °F 30.26 in NNE 4.0 mph 5.0 mph 78% 0.00 in
10:10 45.1 °F 38.7 °F 30.26 in NE 6.0 mph 6.0 mph 78% 0.00 in
10:15 45.4 °F 38.6 °F 30.26 in North 5.0 mph 6.0 mph 77% 0.00 in
10:20 45.7 °F 38.6 °F 30.27 in NNE 4.0 mph 6.0 mph 76% 0.00 in
10:25 45.9 °F 37.8 °F 30.27 in ENE 6.0 mph 7.0 mph 73% 0.00 in
10:30 46.1 °F 37.9 °F 30.27 in ENE 4.0 mph 6.0 mph 73% 0.00 in
10:35 46.5 °F 38.3 °F 30.27 in NE 6.0 mph 7.0 mph 73% 0.00 in
10:40 46.8 °F 38.3 °F 30.27 in ENE 4.0 mph 7.0 mph 72% 0.00 in
10:45 47.0 °F 38.1 °F 30.27 in North 4.0 mph 6.0 mph 71% 0.00 in
10:50 47.3 °F 36.9 °F 30.27 in NNE 5.0 mph 8.0 mph 67% 0.00 in
10:55 47.5 °F 36.7 °F 30.27 in NNE 4.0 mph 6.0 mph 66% 0.00 in
11:00 48.0 °F 36.8 °F 30.27 in NNW 4.0 mph 7.0 mph 65% 0.00 in
11:05 48.3 °F 37.1 °F 30.27 in NE 5.0 mph 5.0 mph 65% 0.00 in
11:10 48.5 °F 36.1 °F 30.27 in ENE 6.0 mph 7.0 mph 62% 0.00 in
11:15 48.7 °F 35.9 °F 30.27 in NE 3.0 mph 7.0 mph 61% 0.00 in
11:16 48.7 °F 35.9 °F 30.27 in NE 4.0 mph 7.0 mph 61% 0.00 in
11:21 48.9 °F 36.5 °F 30.27 in NNE 5.0 mph 8.0 mph 62% 0.00 in
11:26 49.1 °F 35.4 °F 30.27 in ENE 2.0 mph 7.0 mph 59% 0.00 in
11:31 49.2 °F 35.1 °F 30.26 in NE 4.0 mph 8.0 mph 58% 0.00 in
11:36 49.2 °F 35.9 °F 30.26 in North 4.0 mph 7.0 mph 60% 0.00 in
11:41 50.0 °F 35.8 °F 30.26 in North 6.0 mph 8.0 mph 58% 0.00 in
11:46 49.9 °F 33.9 °F 30.26 in ENE 4.0 mph 6.0 mph 54% 0.00 in
11:51 50.4 °F 37.0 °F 30.25 in NNE 2.0 mph 8.0 mph 60% 0.00 in
11:56 50.4 °F 35.3 °F 30.25 in NNW 6.0 mph 8.0 mph 56% 0.00 in
12:01 50.3 °F 34.3 °F 30.25 in NE 4.0 mph 8.0 mph 54% 0.00 in
12:06 50.0 °F 34.9 °F 30.25 in NE 7.0 mph 7.0 mph 56% 0.00 in
12:11 50.4 °F 35.8 °F 30.25 in NNE 5.0 mph 8.0 mph 57% 0.00 in
12:16 50.8 °F 35.2 °F 30.25 in NE 2.0 mph 5.0 mph 55% 0.00 in
12:21 50.9 °F 34.4 °F 30.24 in North 5.0 mph 9.0 mph 53% 0.00 in
12:26 50.9 °F 33.9 °F 30.24 in NNE 4.0 mph 7.0 mph 52% 0.00 in
12:31 51.2 °F 34.7 °F 30.24 in NE 9.0 mph 9.0 mph 53% 0.00 in
12:36 51.6 °F 35.0 °F 30.24 in NE 4.0 mph 8.0 mph 53% 0.00 in
12:41 51.4 °F 34.4 °F 30.24 in NNE 7.0 mph 8.0 mph 52% 0.00 in
12:46 51.2 °F 34.7 °F 30.24 in East 5.0 mph 8.0 mph 53% 0.00 in
12:51 51.5 °F 34.0 °F 30.23 in North 6.0 mph 9.0 mph 51% 0.00 in
12:56 51.9 °F 34.8 °F 30.23 in NE 5.0 mph 8.0 mph 52% 0.00 in
13:01 52.2 °F 33.6 °F 30.23 in NNW 4.0 mph 6.0 mph 49% 0.00 in
13:06 52.7 °F 33.0 °F 30.22 in NW 6.0 mph 6.0 mph 47% 0.00 in
13:11 53.0 °F 33.3 °F 30.22 in NE 4.0 mph 8.0 mph 47% 0.00 in
13:16 52.7 °F 33.0 °F 30.22 in East 2.0 mph 6.0 mph 47% 0.00 in
13:21 53.0 °F 34.9 °F 30.21 in NE 6.0 mph 12.0 mph 50% 0.00 in
13:26 53.2 °F 33.5 °F 30.22 in NNW 3.0 mph 7.0 mph 47% 0.00 in
13:31 53.1 °F 31.8 °F 30.21 in NNE 2.0 mph 7.0 mph 44% 0.00 in
13:36 53.3 °F 31.4 °F 30.21 in NNW 3.0 mph 7.0 mph 43% 0.00 in
13:41 53.8 °F 31.9 °F 30.20 in NW 1.0 mph 9.0 mph 43% 0.00 in
13:46 53.9 °F 31.4 °F 30.20 in North 2.0 mph 6.0 mph 42% 0.00 in
13:52 54.1 °F 32.1 °F 30.19 in Calm   2.0 mph 43% 0.00 in
13:57 54.8 °F 34.4 °F 30.19 in NE 6.0 mph 6.0 mph 46% 0.00 in
14:02 54.3 °F 32.9 °F 30.19 in North 4.0 mph 6.0 mph 44% 0.00 in
14:07 54.9 °F 32.3 °F 30.19 in NW 6.0 mph 6.0 mph 42% 0.00 in
14:12 55.1 °F 31.2 °F 30.19 in NW 3.0 mph 9.0 mph 40% 0.00 in
14:17 55.3 °F 30.8 °F 30.19 in NNW 4.0 mph 5.0 mph 39% 0.00 in
14:22 55.6 °F 33.5 °F 30.19 in NNE 6.0 mph 6.0 mph 43% 0.00 in
14:27 55.7 °F 33.0 °F 30.19 in NNW 3.0 mph 8.0 mph 42% 0.00 in
14:32 55.1 °F 30.6 °F 30.19 in NNE 3.0 mph 8.0 mph 39% 0.00 in
14:37 55.1 °F 31.8 °F 30.19 in NNE 3.0 mph 9.0 mph 41% 0.00 in
14:39 55.2 °F 30.7 °F 30.19 in NNW 6.0 mph 9.0 mph 39% 0.00 in
14:44 55.7 °F 30.5 °F 30.19 in NW 5.0 mph 6.0 mph 38% 0.00 in
14:49 55.9 °F 31.3 °F 30.19 in NE 1.0 mph 4.0 mph 39% 0.00 in
14:54 56.2 °F 31.6 °F 30.19 in NNE 5.0 mph 7.0 mph 39% 0.00 in
14:59 55.7 °F 31.1 °F 30.19 in NNW 4.0 mph 5.0 mph 39% 0.00 in
15:04 56.1 °F 30.2 °F 30.19 in North 5.0 mph 11.0 mph 37% 0.00 in
15:09 56.0 °F 28.8 °F 30.19 in NNE 8.0 mph 10.0 mph 35% 0.00 in
15:14 55.8 °F 31.2 °F 30.18 in North 6.0 mph 8.0 mph 39% 0.00 in
15:19 55.8 °F 29.9 °F 30.18 in NW 4.0 mph 6.0 mph 37% 0.00 in
15:24 56.1 °F 32.1 °F 30.18 in NE 7.0 mph 7.0 mph 40% 0.00 in
15:29 56.2 °F 31.6 °F 30.17 in NW 2.0 mph 4.0 mph 39% 0.00 in
15:34 56.3 °F 31.0 °F 30.17 in NNE 4.0 mph 6.0 mph 38% 0.00 in
15:39 56.2 °F 31.0 °F 30.18 in North 3.0 mph 5.0 mph 38% 0.00 in
15:44 56.2 °F 31.0 °F 30.17 in NNE 3.0 mph 6.0 mph 38% 0.00 in
15:49 55.9 °F 30.0 °F 30.17 in NE 5.0 mph 10.0 mph 37% 0.00 in
15:54 55.6 °F 29.1 °F 30.17 in NE 6.0 mph 8.0 mph 36% 0.00 in
15:59 55.5 °F 29.7 °F 30.17 in NE 3.0 mph 7.0 mph 37% 0.00 in
16:04 55.4 °F 28.9 °F 30.17 in NNE 1.0 mph 4.0 mph 36% 0.00 in
16:10 55.6 °F 29.8 °F 30.17 in NNW 5.0 mph 7.0 mph 37% 0.00 in
16:15 56.1 °F 29.5 °F 30.17 in NNE 5.0 mph 7.0 mph 36% 0.00 in
16:20 56.0 °F 30.1 °F 30.17 in NE 2.0 mph 6.0 mph 37% 0.00 in
16:25 55.8 °F 30.6 °F 30.17 in North 4.0 mph 9.0 mph 38% 0.00 in
16:27 55.9 °F 32.0 °F 30.17 in NNE 4.0 mph 9.0 mph 40% 0.00 in
16:32 55.8 °F 31.2 °F 30.17 in NNW 4.0 mph 5.0 mph 39% 0.00 in
16:37 56.0 °F 30.1 °F 30.17 in NNE 7.0 mph 7.0 mph 37% 0.00 in
16:42 56.0 °F 31.4 °F 30.17 in North 4.0 mph 6.0 mph 39% 0.00 in
16:47 56.2 °F 31.0 °F 30.17 in NNW 3.0 mph 5.0 mph 38% 0.00 in
16:52 56.4 °F 31.1 °F 30.17 in NNE 5.0 mph 6.0 mph 38% 0.00 in
16:57 56.1 °F 29.5 °F 30.17 in NNE 1.0 mph 5.0 mph 36% 0.00 in
17:02 55.8 °F 29.9 °F 30.17 in NNE 4.0 mph 6.0 mph 37% 0.00 in
17:07 55.4 °F 29.6 °F 30.18 in NE 2.0 mph 6.0 mph 37% 0.00 in
17:12 55.1 °F 29.3 °F 30.18 in NNE 4.0 mph 4.0 mph 37% 0.00 in
17:17 55.2 °F 29.4 °F 30.18 in North 3.0 mph 4.0 mph 37% 0.00 in
17:22 55.4 °F 31.5 °F 30.19 in NNW 1.0 mph 4.0 mph 40% 0.00 in
17:27 55.0 °F 30.5 °F 30.19 in NNW 3.0 mph 4.0 mph 39% 0.00 in
17:32 54.5 °F 32.5 °F 30.18 in NE 2.0 mph 3.0 mph 43% 0.00 in
17:37 54.1 °F 31.5 °F 30.19 in NNE 2.0 mph 4.0 mph 42% 0.00 in
17:42 53.8 °F 31.9 °F 30.18 in NE 5.0 mph 6.0 mph 43% 0.00 in
17:47 53.7 °F 31.8 °F 30.18 in North 4.0 mph 5.0 mph 43% 0.00 in
17:52 53.7 °F 31.8 °F 30.18 in NE 3.0 mph 4.0 mph 43% 0.00 in
17:57 53.5 °F 31.6 °F 30.18 in NNE 1.0 mph 4.0 mph 43% 0.00 in
18:02 53.3 °F 31.4 °F 30.19 in NNE 1.0 mph 2.0 mph 43% 0.00 in
18:07 53.1 °F 31.8 °F 30.19 in NNE 2.0 mph 3.0 mph 44% 0.00 in
18:12 53.1 °F 31.8 °F 30.19 in NE 3.0 mph 4.0 mph 44% 0.00 in
18:17 52.9 °F 31.6 °F 30.19 in NNE 2.0 mph 3.0 mph 44% 0.00 in
18:23 52.7 °F 31.4 °F 30.19 in NNE 1.0 mph 2.0 mph 44% 0.00 in
18:28 52.5 °F 31.2 °F 30.19 in Calm   1.0 mph 44% 0.00 in
18:33 52.3 °F 31.0 °F 30.19 in NNE 1.0 mph 2.0 mph 44% 0.00 in
18:38 52.1 °F 31.4 °F 30.18 in NNE 1.0 mph 2.0 mph 45% 0.00 in
18:43 51.9 °F 31.8 °F 30.19 in NNE 1.0 mph 1.0 mph 46% 0.00 in
18:48 51.8 °F 31.7 °F 30.19 in Calm   1.0 mph 46% 0.00 in
18:53 51.8 °F 31.7 °F 30.19 in NNE 1.0 mph 2.0 mph 46% 0.00 in
18:58 51.6 °F 33.6 °F 30.20 in Calm   1.0 mph 50% 0.00 in
19:03 51.0 °F 32.0 °F 30.20 in Calm     48% 0.00 in
19:08 50.8 °F 32.3 °F 30.20 in North 2.0 mph 2.0 mph 49% 0.00 in
19:13 50.8 °F 33.3 °F 30.19 in NNE 2.0 mph 2.0 mph 51% 0.00 in
19:18 50.6 °F 33.2 °F 30.20 in NNE 1.0 mph 3.0 mph 51% 0.00 in
19:23 50.6 °F 32.7 °F 30.20 in NNE 1.0 mph 2.0 mph 50% 0.00 in
19:28 50.7 °F 32.8 °F 30.19 in NNE 2.0 mph 3.0 mph 50% 0.00 in
19:33 50.8 °F 32.3 °F 30.19 in NE 2.0 mph 3.0 mph 49% 0.00 in
19:38 50.9 °F 32.9 °F 30.19 in NNE 3.0 mph 3.0 mph 50% 0.00 in
19:43 50.8 °F 32.8 °F 30.19 in NNE 2.0 mph 3.0 mph 50% 0.00 in
19:48 50.8 °F 32.8 °F 30.19 in NE 2.0 mph 3.0 mph 50% 0.00 in
19:53 50.7 °F 32.2 °F 30.19 in NE 1.0 mph 2.0 mph 49% 0.00 in
19:58 50.8 °F 32.3 °F 30.19 in NE 1.0 mph 4.0 mph 49% 0.00 in
20:03 50.6 °F 32.2 °F 30.18 in NE 2.0 mph 4.0 mph 49% 0.00 in
20:08 50.4 °F 32.5 °F 30.18 in NNE 1.0 mph 4.0 mph 50% 0.00 in
20:13 50.4 °F 32.0 °F 30.18 in NE 1.0 mph 2.0 mph 49% 0.00 in
20:18 50.4 °F 32.0 °F 30.18 in NNE 2.0 mph 2.0 mph 49% 0.00 in
20:24 50.3 °F 31.9 °F 30.18 in North 1.0 mph 2.0 mph 49% 0.00 in
20:29 50.1 °F 31.7 °F 30.18 in NNE 1.0 mph 2.0 mph 49% 0.00 in
20:34 50.1 °F 31.7 °F 30.19 in NNW 2.0 mph 2.0 mph 49% 0.00 in
20:39 49.7 °F 33.3 °F 30.19 in NNW 2.0 mph 4.0 mph 53% 0.00 in
20:44 49.3 °F 32.9 °F 30.19 in NNW 2.0 mph 4.0 mph 53% 0.00 in
20:49 49.2 °F 33.3 °F 30.18 in NNW 3.0 mph 3.0 mph 54% 0.00 in
20:54 49.2 °F 33.3 °F 30.18 in NNW 3.0 mph 5.0 mph 54% 0.00 in
20:59 49.2 °F 33.3 °F 30.18 in NNW 4.0 mph 6.0 mph 54% 0.00 in
21:04 49.3 °F 32.9 °F 30.18 in North 3.0 mph 6.0 mph 53% 0.00 in
21:09 49.3 °F 32.9 °F 30.19 in North 4.0 mph 7.0 mph 53% 0.00 in
21:14 49.5 °F 33.6 °F 30.19 in NNW 6.0 mph 8.0 mph 54% 0.00 in
21:19 49.5 °F 33.6 °F 30.19 in North 4.0 mph 6.0 mph 54% 0.00 in
21:24 49.5 °F 34.0 °F 30.19 in NNW 6.0 mph 6.0 mph 55% 0.00 in
21:29 49.4 °F 33.9 °F 30.20 in NNW 4.0 mph 6.0 mph 55% 0.00 in
21:34 49.3 °F 34.3 °F 30.19 in NW 5.0 mph 7.0 mph 56% 0.00 in
21:39 49.4 °F 34.4 °F 30.20 in NNW 6.0 mph 6.0 mph 56% 0.00 in
21:44 49.4 °F 34.4 °F 30.20 in NW 5.0 mph 7.0 mph 56% 0.00 in
21:49 49.4 °F 34.4 °F 30.20 in NW 4.0 mph 8.0 mph 56% 0.00 in
21:54 49.3 °F 34.7 °F 30.20 in NW 6.0 mph 7.0 mph 57% 0.00 in
21:59 49.3 °F 34.7 °F 30.20 in NNW 5.0 mph 8.0 mph 57% 0.00 in
22:04 49.2 °F 34.6 °F 30.20 in NNW 6.0 mph 8.0 mph 57% 0.00 in
22:09 49.2 °F 34.6 °F 30.20 in NNW 5.0 mph 8.0 mph 57% 0.00 in
22:14 49.1 °F 35.0 °F 30.21 in NNW 4.0 mph 7.0 mph 58% 0.00 in
22:19 49.1 °F 35.0 °F 30.21 in NW 4.0 mph 9.0 mph 58% 0.00 in
22:24 49.1 °F 35.0 °F 30.21 in NNW 3.0 mph 7.0 mph 58% 0.00 in
22:29 49.0 °F 34.9 °F 30.21 in NNW 4.0 mph 5.0 mph 58% 0.00 in
22:34 49.0 °F 34.9 °F 30.20 in NNW 4.0 mph 8.0 mph 58% 0.00 in
22:39 48.9 °F 35.2 °F 30.20 in NW 2.0 mph 6.0 mph 59% 0.00 in
22:44 48.7 °F 35.5 °F 30.20 in NNW 3.0 mph 4.0 mph 60% 0.00 in
22:49 48.7 °F 35.5 °F 30.21 in NNW 4.0 mph 5.0 mph 60% 0.00 in
22:54 48.5 °F 35.7 °F 30.21 in NNW 3.0 mph 4.0 mph 61% 0.00 in
22:59 48.4 °F 35.6 °F 30.21 in NW 2.0 mph 4.0 mph 61% 0.00 in
23:04 48.4 °F 35.2 °F 30.21 in NNW 4.0 mph 6.0 mph 60% 0.00 in
23:09 48.4 °F 35.6 °F 30.21 in NNW 4.0 mph 6.0 mph 61% 0.00 in
23:14 48.4 °F 35.6 °F 30.21 in NW 2.0 mph 5.0 mph 61% 0.00 in
23:20 48.4 °F 35.6 °F 30.22 in NNW 5.0 mph 6.0 mph 61% 0.00 in
23:24 48.4 °F 35.2 °F 30.22 in NW 7.0 mph 7.0 mph 60% 0.00 in
23:30 48.2 °F 36.6 °F 30.22 in NW 2.0 mph 7.0 mph 64% 0.00 in
23:35 47.8 °F 36.6 °F 30.21 in WNW 5.0 mph 5.0 mph 65% 0.00 in
23:40 47.7 °F 36.5 °F 30.21 in NNW 4.0 mph 8.0 mph 65% 0.00 in
23:45 47.5 °F 36.3 °F 30.22 in NW 3.0 mph 4.0 mph 65% 0.00 in
23:50 47.6 °F 36.4 °F 30.22 in WNW 6.0 mph 6.0 mph 65% 0.00 in
23:55 47.7 °F 35.7 °F 30.22 in NW 9.0 mph 9.0 mph 63% 0.00 in
Compliments of Weather Underground